createdAt,value
2023-03-28T00:00:23.294Z,0.70
2023-03-28T00:03:08.953Z,0.60
2023-03-28T00:06:05.595Z,0.50
2023-03-28T00:08:51.258Z,0.60
2023-03-28T00:11:36.549Z,0.50
2023-03-28T00:14:24.909Z,0.50
2023-03-28T00:17:10.061Z,0.50
2023-03-28T00:19:55.588Z,0.50
2023-03-28T00:22:41.330Z,0.40
2023-03-28T00:25:27.091Z,0.30
2023-03-28T00:28:12.444Z,0.20
2023-03-28T00:31:08.168Z,0.20
2023-03-28T00:33:54.472Z,0.30
2023-03-28T00:36:41.669Z,0.30
2023-03-28T00:39:27.752Z,0.30
2023-03-28T00:42:18.398Z,0.40
2023-03-28T00:45:09.841Z,0.40
2023-03-28T00:48:06.809Z,0.30
2023-03-28T00:51:03.859Z,0.40
2023-03-28T00:53:53.536Z,0.40
2023-03-28T00:56:42.909Z,0.60
2023-03-28T00:59:32.280Z,0.60
2023-03-28T01:02:18.663Z,0.60
2023-03-28T01:05:04.375Z,0.50
2023-03-28T01:07:55.995Z,0.40
2023-03-28T01:10:42.200Z,0.50
2023-03-28T01:13:37.688Z,0.50
2023-03-28T01:16:26.615Z,0.50
2023-03-28T01:19:50.440Z,0.40
2023-03-28T01:22:41.748Z,0.50
2023-03-28T01:26:02.630Z,0.40
2023-03-28T01:29:09.885Z,0.40
2023-03-28T01:32:14.275Z,0.40
2023-03-28T01:35:14.821Z,0.40
2023-03-28T01:38:25.125Z,0.60
2023-03-28T01:41:33.721Z,0.70
2023-03-28T01:44:19.188Z,0.80
2023-03-28T01:47:25.794Z,1.00
2023-03-28T01:50:29.923Z,1.00
2023-03-28T01:53:46.419Z,1.10
2023-03-28T01:56:41.988Z,1.20
2023-03-28T01:59:30.516Z,1.20
2023-03-28T02:02:39.120Z,1.30
2023-03-28T02:05:28.299Z,1.20
2023-03-28T02:08:15.549Z,1.10
2023-03-28T02:11:04.633Z,0.80
2023-03-28T02:13:58.444Z,0.80
2023-03-28T02:16:45.994Z,0.70
2023-03-28T02:19:36.065Z,0.60
2023-03-28T02:22:35.414Z,0.50
2023-03-28T02:25:21.180Z,0.40
2023-03-28T02:28:09.004Z,0.40
2023-03-28T02:30:55.367Z,0.30
2023-03-28T02:33:46.045Z,0.40
2023-03-28T02:36:57.154Z,0.40
2023-03-28T02:39:52.310Z,0.40
2023-03-28T02:43:19.343Z,0.30
2023-03-28T02:46:18.797Z,0.30
2023-03-28T02:49:22.246Z,0.20
2023-03-28T02:52:30.578Z,0.30
2023-03-28T02:55:28.187Z,0.30
2023-03-28T02:58:47.362Z,0.50
2023-03-28T03:01:34.114Z,0.60
2023-03-28T03:04:21.843Z,0.60
2023-03-28T03:07:09.585Z,0.60
2023-03-28T03:09:57.761Z,0.70
2023-03-28T03:12:48.411Z,0.80
2023-03-28T03:15:35.657Z,0.90
2023-03-28T03:18:23.604Z,0.90
2023-03-28T03:21:08.932Z,1.00
2023-03-28T03:23:56.439Z,1.10
2023-03-28T03:26:41.868Z,1.00
2023-03-28T03:29:38.392Z,0.80
2023-03-28T03:32:25.428Z,0.70
2023-03-28T03:35:11.654Z,0.50
2023-03-28T03:37:56.794Z,0.50
2023-03-28T03:40:47.019Z,0.50
2023-03-28T03:43:35.291Z,0.50
2023-03-28T03:46:26.120Z,0.50
2023-03-28T03:49:12.047Z,0.40
2023-03-28T03:51:57.438Z,0.40
2023-03-28T03:54:45.821Z,0.30
2023-03-28T03:57:34.143Z,0.30
2023-03-28T04:00:19.863Z,0.40
2023-03-28T04:03:05.411Z,0.40
2023-03-28T04:05:52.768Z,0.40
2023-03-28T04:08:38.764Z,0.30
2023-03-28T04:11:24.252Z,0.30
2023-03-28T04:14:09.765Z,0.50
2023-03-28T04:16:55.226Z,0.40
2023-03-28T04:19:41.495Z,0.30
2023-03-28T04:22:29.949Z,0.20
2023-03-28T04:25:17.697Z,0.20
2023-03-28T04:28:03.511Z,0.10
2023-03-28T04:30:54.559Z,0.00
2023-03-28T04:33:40.765Z,0.00
2023-03-28T04:36:27.065Z,-0.10
2023-03-28T04:39:13.544Z,0.00
2023-03-28T04:42:05.302Z,-0.10
2023-03-28T04:44:53.081Z,0.00
2023-03-28T04:47:39.952Z,0.00
2023-03-28T04:50:25.772Z,0.20
2023-03-28T04:53:12.292Z,0.40
2023-03-28T04:55:57.722Z,0.50
2023-03-28T04:58:43.793Z,0.50
2023-03-28T05:01:31.814Z,0.50
2023-03-28T05:04:18.234Z,0.60
2023-03-28T05:07:04.687Z,0.50
2023-03-28T05:09:52.284Z,0.30
2023-03-28T05:12:39.679Z,0.30
2023-03-28T05:15:26.053Z,0.40
2023-03-28T05:18:12.022Z,0.50
2023-03-28T05:20:57.420Z,0.80
2023-03-28T05:23:42.692Z,1.00
2023-03-28T05:26:28.734Z,1.00
2023-03-28T05:29:14.193Z,1.10
2023-03-28T05:32:01.903Z,0.80
2023-03-28T05:34:47.181Z,0.60
2023-03-28T05:37:33.009Z,0.60
2023-03-28T05:40:18.730Z,0.40
2023-03-28T05:43:06.752Z,0.40
2023-03-28T05:45:54.745Z,0.40
2023-03-28T05:48:49.430Z,0.40
2023-03-28T05:51:35.738Z,0.30
2023-03-28T05:54:24.251Z,0.30
2023-03-28T05:57:09.994Z,0.30
2023-03-28T05:59:56.425Z,0.20
2023-03-28T06:02:43.292Z,0.20
2023-03-28T06:05:32.009Z,0.30
2023-03-28T06:08:17.313Z,0.20
2023-03-28T06:11:05.496Z,0.20
2023-03-28T06:13:51.030Z,0.30
2023-03-28T06:16:36.980Z,0.30
2023-03-28T06:19:24.643Z,0.30
2023-03-28T06:22:15.309Z,0.30
2023-03-28T06:25:01.161Z,0.40
2023-03-28T06:27:51.401Z,0.50
2023-03-28T06:30:36.561Z,0.50
2023-03-28T06:33:22.697Z,0.50
2023-03-28T06:36:08.916Z,0.60
2023-03-28T06:38:58.331Z,0.60
2023-03-28T06:41:46.198Z,0.50
2023-03-28T06:44:31.677Z,0.60
2023-03-28T06:47:17.177Z,0.60
2023-03-28T06:50:02.842Z,0.60
2023-03-28T06:52:48.509Z,0.70
2023-03-28T06:55:36.210Z,0.70
2023-03-28T06:58:24.338Z,0.90
2023-03-28T07:01:12.339Z,0.80
2023-03-28T07:03:59.632Z,0.90
2023-03-28T07:06:47.771Z,1.00
2023-03-28T07:09:36.401Z,1.00
2023-03-28T07:12:21.808Z,1.00
2023-03-28T07:15:07.896Z,1.10
2023-03-28T07:17:57.195Z,1.10
2023-03-28T07:20:45.582Z,1.20
2023-03-28T07:23:32.931Z,1.20
2023-03-28T07:26:21.840Z,1.30
2023-03-28T07:29:07.241Z,1.40
2023-03-28T07:31:52.650Z,1.40
2023-03-28T07:34:42.809Z,1.40
2023-03-28T07:37:28.128Z,1.50
2023-03-28T07:40:14.012Z,1.60
2023-03-28T07:42:59.611Z,1.60
2023-03-28T07:45:46.951Z,1.60
2023-03-28T07:48:33.198Z,1.60
2023-03-28T07:51:18.635Z,1.80
2023-03-28T07:54:05.049Z,1.80
2023-03-28T07:56:51.685Z,1.80
2023-03-28T07:59:37.208Z,1.80
2023-03-28T08:02:23.346Z,1.90
2023-03-28T08:05:09.880Z,1.90
2023-03-28T08:07:58.561Z,2.00
2023-03-28T08:10:51.141Z,2.10
2023-03-28T08:13:39.331Z,2.00
2023-03-28T08:16:28.119Z,2.20
2023-03-28T08:19:13.986Z,2.20
2023-03-28T08:22:02.461Z,2.20
2023-03-28T08:24:50.502Z,2.30
2023-03-28T08:27:35.942Z,2.40
2023-03-28T08:30:23.677Z,2.50
2023-03-28T08:33:10.094Z,2.70
2023-03-28T08:35:56.968Z,2.70
2023-03-28T08:38:46.524Z,2.90
2023-03-28T08:41:51.183Z,3.10
2023-03-28T08:45:04.800Z,3.00
2023-03-28T08:48:05.496Z,3.10
2023-03-28T08:51:02.905Z,3.30
2023-03-28T08:54:25.870Z,3.40
2023-03-28T08:57:20.808Z,3.50
2023-03-28T09:00:31.897Z,3.50
2023-03-28T09:03:23.691Z,3.60
2023-03-28T09:06:33.192Z,3.60
2023-03-28T09:10:07.874Z,3.70
2023-03-28T09:13:30.797Z,3.80
2023-03-28T09:16:20.169Z,3.90
2023-03-28T09:19:37.104Z,4.10
2023-03-28T09:22:59.005Z,4.10
2023-03-28T09:26:07.988Z,4.50
2023-03-28T09:29:03.199Z,4.70
2023-03-28T09:31:58.073Z,4.70
2023-03-28T09:34:49.768Z,4.60
2023-03-28T09:37:42.509Z,4.70
2023-03-28T09:40:32.848Z,4.50
2023-03-28T09:43:35.365Z,4.70
2023-03-28T09:46:41.876Z,4.90
2023-03-28T09:49:30.833Z,4.90
2023-03-28T09:52:23.770Z,5.00
2023-03-28T09:55:28.436Z,5.10
2023-03-28T09:58:18.339Z,5.40
2023-03-28T10:01:07.111Z,5.10
2023-03-28T10:03:54.780Z,5.20
2023-03-28T10:06:44.160Z,5.40
2023-03-28T10:09:29.518Z,5.50
2023-03-28T10:12:31.934Z,5.40
2023-03-28T10:15:53.602Z,5.60
2023-03-28T10:18:41.549Z,5.60
2023-03-28T10:21:30.147Z,5.60
2023-03-28T10:24:20.180Z,5.80
2023-03-28T10:27:17.480Z,5.50
2023-03-28T10:30:24.466Z,5.40
2023-03-28T10:33:21.014Z,5.70
2023-03-28T10:36:12.664Z,5.70
2023-03-28T10:39:00.017Z,5.70
2023-03-28T10:41:56.814Z,5.70
2023-03-28T10:44:42.100Z,6.40
2023-03-28T10:47:31.730Z,6.30
2023-03-28T10:50:27.565Z,5.40
2023-03-28T10:53:22.058Z,5.20
2023-03-28T10:56:29.841Z,5.60
2023-03-28T10:59:27.404Z,5.70
2023-03-28T11:02:33.096Z,5.90
2023-03-28T11:05:28.810Z,5.80
2023-03-28T11:08:41.824Z,5.70
2023-03-28T11:11:45.472Z,5.80
2023-03-28T11:14:43.265Z,6.40
2023-03-28T11:17:47.404Z,6.60
2023-03-28T11:21:07.751Z,6.50
2023-03-28T11:24:10.333Z,6.00
2023-03-28T11:27:16.139Z,5.80
2023-03-28T11:30:16.416Z,6.00
2023-03-28T11:33:10.505Z,6.10
2023-03-28T11:36:13.891Z,6.30
2023-03-28T11:39:21.678Z,6.60
2023-03-28T11:42:20.619Z,6.70
2023-03-28T11:45:34.685Z,6.80
2023-03-28T11:48:56.122Z,7.00
2023-03-28T11:51:54.402Z,6.80
2023-03-28T11:54:47.517Z,7.10
2023-03-28T11:57:54.528Z,7.20
2023-03-28T12:00:44.958Z,7.50
2023-03-28T12:04:14.277Z,7.60
2023-03-28T12:07:11.527Z,6.90
2023-03-28T12:10:02.009Z,6.80
2023-03-28T12:13:05.504Z,6.80
2023-03-28T12:16:00.486Z,7.00
2023-03-28T12:18:49.924Z,7.40
2023-03-28T12:21:38.556Z,7.00
2023-03-28T12:24:42.663Z,6.80
2023-03-28T12:27:42.212Z,6.60
2023-03-28T12:30:40.419Z,6.90
2023-03-28T12:33:51.519Z,7.40
2023-03-28T12:36:49.074Z,7.70
2023-03-28T12:39:57.472Z,7.90
2023-03-28T12:42:46.666Z,7.90
2023-03-28T12:45:46.039Z,7.90
2023-03-28T12:48:36.807Z,7.80
2023-03-28T12:51:41.405Z,11.60
2023-03-28T12:54:33.956Z,17.30
2023-03-28T12:57:41.326Z,18.70
2023-03-28T13:00:30.102Z,17.90
2023-03-28T13:03:21.425Z,21.40
2023-03-28T13:06:06.830Z,21.10
2023-03-28T13:09:30.062Z,19.00
2023-03-28T13:12:30.177Z,21.00
2023-03-28T13:15:15.396Z,23.90
2023-03-28T13:18:22.094Z,25.30
2023-03-28T13:21:08.143Z,27.30
2023-03-28T13:23:53.457Z,27.50
2023-03-28T13:27:14.096Z,27.00
2023-03-28T13:30:10.145Z,26.10
2023-03-28T13:33:03.345Z,19.70
2023-03-28T13:36:12.670Z,26.10
2023-03-28T13:39:25.101Z,27.90
2023-03-28T13:42:28.054Z,27.10
2023-03-28T13:45:25.469Z,26.80
2023-03-28T13:48:13.590Z,28.70
2023-03-28T13:51:05.494Z,30.20
2023-03-28T13:53:51.330Z,26.40
2023-03-28T13:56:40.364Z,28.20
2023-03-28T13:59:32.527Z,27.10
2023-03-28T14:02:32.037Z,25.40
2023-03-28T14:05:29.036Z,27.50
2023-03-28T14:08:14.354Z,26.90
2023-03-28T14:11:03.017Z,24.90
2023-03-28T14:13:49.644Z,22.20
2023-03-28T14:16:35.134Z,24.00
2023-03-28T14:19:27.098Z,23.30
2023-03-28T14:22:23.943Z,24.50
2023-03-28T14:25:14.004Z,22.60
2023-03-28T14:28:08.593Z,17.30
2023-03-28T14:30:53.889Z,17.30
2023-03-28T14:33:41.942Z,20.80
2023-03-28T14:36:58.999Z,22.80
2023-03-28T14:39:45.747Z,23.20
2023-03-28T14:42:33.044Z,23.90
2023-03-28T14:45:18.683Z,24.70
2023-03-28T14:48:08.687Z,22.40
2023-03-28T14:50:55.623Z,20.80
2023-03-28T14:53:44.383Z,21.30
2023-03-28T14:56:29.865Z,20.90
2023-03-28T14:59:19.794Z,22.80
2023-03-28T15:02:06.536Z,19.10
2023-03-28T15:04:53.612Z,16.20
2023-03-28T15:07:42.426Z,15.60
2023-03-28T15:10:28.483Z,14.00
2023-03-28T15:13:23.207Z,14.20
2023-03-28T15:16:14.797Z,14.70
2023-03-28T15:19:07.085Z,11.70
2023-03-28T15:22:01.458Z,12.50
2023-03-28T15:24:47.436Z,12.60
2023-03-28T15:27:35.787Z,13.70
2023-03-28T15:30:24.922Z,13.30
2023-03-28T15:33:20.240Z,12.80
2023-03-28T15:36:17.930Z,13.00
2023-03-28T15:39:24.255Z,11.40
2023-03-28T15:42:21.355Z,10.60
2023-03-28T15:45:21.854Z,11.00
2023-03-28T15:48:15.088Z,10.60
2023-03-28T15:51:05.380Z,13.30
2023-03-28T15:53:54.245Z,12.50
2023-03-28T15:56:45.986Z,10.10
2023-03-28T15:59:33.794Z,9.00
2023-03-28T16:02:25.560Z,8.40
2023-03-28T16:05:14.300Z,8.10
2023-03-28T16:07:59.967Z,7.70
2023-03-28T16:10:45.458Z,7.60
2023-03-28T16:13:31.297Z,7.40
2023-03-28T16:16:26.100Z,7.50
2023-03-28T16:19:20.913Z,7.70
2023-03-28T16:22:09.142Z,7.80
2023-03-28T16:24:55.223Z,8.20
2023-03-28T16:27:42.444Z,8.70
2023-03-28T16:30:36.204Z,8.60
2023-03-28T16:33:21.885Z,8.60
2023-03-28T16:36:08.206Z,8.50
2023-03-28T16:38:53.651Z,8.30
2023-03-28T16:41:39.004Z,8.20
2023-03-28T16:44:27.809Z,7.80
2023-03-28T16:47:13.506Z,7.60
2023-03-28T16:49:59.604Z,7.50
2023-03-28T16:52:46.164Z,7.40
2023-03-28T16:55:32.141Z,7.20
2023-03-28T16:58:17.653Z,7.00
2023-03-28T17:01:08.541Z,6.90
2023-03-28T17:03:55.805Z,6.70
2023-03-28T17:06:45.847Z,6.60
2023-03-28T17:09:33.263Z,6.50
2023-03-28T17:12:21.402Z,6.40
2023-03-28T17:15:08.925Z,6.40
2023-03-28T17:17:57.472Z,6.30
2023-03-28T17:20:43.515Z,6.20
2023-03-28T17:23:31.024Z,6.10
2023-03-28T17:26:20.977Z,5.90
2023-03-28T17:29:07.725Z,5.90
2023-03-28T17:31:56.146Z,5.90
2023-03-28T17:34:41.783Z,5.80
2023-03-28T17:37:27.512Z,5.70
2023-03-28T17:40:14.622Z,5.50
2023-03-28T17:43:04.422Z,5.60
2023-03-28T17:45:54.555Z,5.50
2023-03-28T17:48:41.271Z,5.40
2023-03-28T17:51:30.355Z,5.30
2023-03-28T17:54:16.748Z,5.20
2023-03-28T17:57:06.874Z,5.30
2023-03-28T17:59:54.694Z,5.40
2023-03-28T18:02:45.907Z,5.30
2023-03-28T18:05:33.945Z,5.20
2023-03-28T18:08:19.988Z,5.00
2023-03-28T18:11:09.057Z,4.90
2023-03-28T18:13:57.214Z,5.00
2023-03-28T18:16:44.671Z,5.00
2023-03-28T18:19:32.704Z,5.20
2023-03-28T18:22:18.172Z,5.00
2023-03-28T18:25:03.741Z,5.00
2023-03-28T18:27:49.000Z,5.00
2023-03-28T18:30:34.853Z,5.00
2023-03-28T18:33:22.079Z,5.00
2023-03-28T18:36:08.209Z,5.00
2023-03-28T18:38:55.997Z,5.00
2023-03-28T18:41:41.949Z,4.90
2023-03-28T18:44:27.608Z,5.10
2023-03-28T18:47:13.731Z,5.10
2023-03-28T18:50:02.175Z,5.10
2023-03-28T18:52:49.721Z,5.10
2023-03-28T18:55:35.327Z,5.10
2023-03-28T18:58:24.081Z,5.00
2023-03-28T19:01:10.241Z,5.10
2023-03-28T19:03:55.874Z,5.10
2023-03-28T19:06:41.501Z,4.90
2023-03-28T19:09:29.260Z,4.70
2023-03-28T19:12:15.362Z,4.70
2023-03-28T19:15:03.258Z,4.90
2023-03-28T19:17:51.818Z,5.00
2023-03-28T19:20:38.279Z,5.10
2023-03-28T19:23:26.392Z,5.10
2023-03-28T19:26:13.512Z,5.10
2023-03-28T19:28:59.565Z,5.00
2023-03-28T19:31:45.945Z,5.00
2023-03-28T19:34:31.732Z,4.90
2023-03-28T19:37:19.273Z,4.90
2023-03-28T19:40:16.093Z,4.80
2023-03-28T19:43:01.951Z,4.80
2023-03-28T19:45:50.209Z,4.90
2023-03-28T19:48:36.110Z,4.90
2023-03-28T19:51:22.288Z,4.90
2023-03-28T19:54:10.297Z,4.90
2023-03-28T19:56:55.733Z,4.90
2023-03-28T19:59:43.647Z,4.90
2023-03-28T20:02:31.908Z,5.00
2023-03-28T20:05:17.878Z,4.90
2023-03-28T20:08:03.583Z,4.90
2023-03-28T20:10:52.482Z,4.80
2023-03-28T20:13:41.172Z,4.80
2023-03-28T20:16:29.313Z,4.70
2023-03-28T20:19:14.812Z,4.60
2023-03-28T20:22:00.276Z,4.50
2023-03-28T20:24:48.781Z,4.40
2023-03-28T20:27:36.708Z,4.30
2023-03-28T20:30:22.727Z,4.30
2023-03-28T20:33:10.838Z,4.10
2023-03-28T20:35:58.428Z,4.10
2023-03-28T20:38:44.160Z,4.10
2023-03-28T20:41:30.058Z,4.10
2023-03-28T20:44:19.912Z,4.00
2023-03-28T20:47:10.452Z,3.80
2023-03-28T20:50:05.580Z,3.90
2023-03-28T20:52:51.791Z,3.80
2023-03-28T20:55:37.557Z,3.80
2023-03-28T20:58:23.641Z,3.50
2023-03-28T21:01:16.475Z,3.60
2023-03-28T21:04:03.281Z,3.50
2023-03-28T21:06:51.384Z,3.40
2023-03-28T21:09:41.749Z,3.40
2023-03-28T21:12:27.633Z,3.30
2023-03-28T21:15:14.514Z,3.30
2023-03-28T21:18:00.249Z,3.30
2023-03-28T21:20:46.581Z,3.30
2023-03-28T21:23:32.469Z,3.30
2023-03-28T21:26:23.110Z,3.40
2023-03-28T21:29:09.782Z,3.40
2023-03-28T21:31:55.321Z,3.50
2023-03-28T21:34:44.887Z,3.60
2023-03-28T21:37:30.109Z,3.60
2023-03-28T21:40:15.996Z,3.60
2023-03-28T21:43:01.375Z,3.60
2023-03-28T21:45:49.817Z,3.60
2023-03-28T21:48:36.693Z,3.60
2023-03-28T21:51:24.806Z,3.50
2023-03-28T21:54:13.426Z,3.60
2023-03-28T21:56:59.352Z,3.50
2023-03-28T21:59:46.434Z,3.50
2023-03-28T22:02:32.138Z,3.50
2023-03-28T22:05:29.379Z,3.40
2023-03-28T22:08:15.532Z,3.40
2023-03-28T22:11:10.866Z,3.40
2023-03-28T22:14:02.365Z,3.40
2023-03-28T22:16:47.849Z,3.40
2023-03-28T22:19:33.915Z,3.30
2023-03-28T22:22:20.214Z,3.20
2023-03-28T22:25:06.922Z,3.10
2023-03-28T22:27:53.162Z,3.10
2023-03-28T22:30:43.141Z,3.00
2023-03-28T22:33:32.085Z,3.00
2023-03-28T22:36:18.730Z,2.90
2023-03-28T22:39:05.049Z,2.70
2023-03-28T22:41:51.091Z,2.70
2023-03-28T22:44:38.679Z,2.70
2023-03-28T22:47:30.042Z,2.60
2023-03-28T22:50:18.328Z,2.50
2023-03-28T22:53:05.877Z,2.50
2023-03-28T22:55:51.849Z,2.40
2023-03-28T22:58:37.257Z,2.30
2023-03-28T23:01:25.954Z,2.40
2023-03-28T23:04:15.151Z,2.30
2023-03-28T23:07:03.648Z,2.30
2023-03-28T23:09:52.226Z,2.30
2023-03-28T23:12:38.569Z,2.20
2023-03-28T23:15:27.063Z,2.10
2023-03-28T23:18:12.847Z,2.20
2023-03-28T23:21:01.935Z,2.10
2023-03-28T23:23:50.327Z,2.00
2023-03-28T23:26:38.385Z,2.00
2023-03-28T23:29:24.605Z,1.90
2023-03-28T23:32:09.959Z,1.90
2023-03-28T23:34:57.695Z,1.90
2023-03-28T23:37:45.958Z,1.80
2023-03-28T23:40:31.716Z,1.80
2023-03-28T23:43:17.266Z,1.80
2023-03-28T23:46:05.218Z,1.70
2023-03-28T23:48:51.046Z,1.70
2023-03-28T23:51:36.497Z,1.70
2023-03-28T23:54:22.063Z,1.60
2023-03-28T23:57:08.060Z,1.70
2023-03-28T23:59:53.237Z,1.70
